createdAt,value
2022-09-20T00:00:40.444Z,0.00
2022-09-20T00:01:40.555Z,0.00
2022-09-20T00:02:44.482Z,0.00
2022-09-20T00:03:40.268Z,0.00
2022-09-20T00:04:40.308Z,0.00
2022-09-20T00:05:40.238Z,0.00
2022-09-20T00:06:40.273Z,0.00
2022-09-20T00:07:40.228Z,0.00
2022-09-20T00:08:40.222Z,0.00
2022-09-20T00:09:40.208Z,0.00
2022-09-20T00:10:40.192Z,0.00
2022-09-20T00:11:40.217Z,0.00
2022-09-20T00:12:40.170Z,0.00
2022-09-20T00:13:40.160Z,0.00
2022-09-20T00:14:40.205Z,0.00
2022-09-20T00:15:40.144Z,0.00
2022-09-20T00:16:40.312Z,0.00
2022-09-20T00:17:40.143Z,0.00
2022-09-20T00:18:40.109Z,0.00
2022-09-20T00:19:40.093Z,0.00
2022-09-20T00:20:40.091Z,0.00
2022-09-20T00:21:40.068Z,0.00
2022-09-20T00:22:40.110Z,0.00
2022-09-20T00:23:40.049Z,0.00
2022-09-20T00:24:40.041Z,0.00
2022-09-20T00:25:40.021Z,0.00
2022-09-20T00:26:40.002Z,0.00
2022-09-20T00:27:39.994Z,0.00
2022-09-20T00:28:40.004Z,0.00
2022-09-20T00:29:39.983Z,0.00
2022-09-20T00:30:39.961Z,0.00
2022-09-20T00:31:39.987Z,0.00
2022-09-20T00:32:39.944Z,0.00
2022-09-20T00:33:40.016Z,0.00
2022-09-20T00:34:39.920Z,0.00
2022-09-20T00:35:39.920Z,0.00
2022-09-20T00:36:39.894Z,0.00
2022-09-20T00:37:39.880Z,0.00
2022-09-20T00:38:39.879Z,0.00
2022-09-20T00:39:39.891Z,0.00
2022-09-20T00:40:39.916Z,0.00
2022-09-20T00:41:39.842Z,0.00
2022-09-20T00:42:39.824Z,0.00
2022-09-20T00:43:39.817Z,0.00
2022-09-20T00:44:39.850Z,0.00
2022-09-20T00:45:39.906Z,0.00
2022-09-20T00:46:39.789Z,0.00
2022-09-20T00:47:39.778Z,0.00
2022-09-20T00:48:39.761Z,0.00
2022-09-20T00:49:39.750Z,0.00
2022-09-20T00:50:39.756Z,0.00
2022-09-20T00:51:39.744Z,0.00
2022-09-20T00:52:39.720Z,0.00
2022-09-20T00:53:39.704Z,0.00
2022-09-20T00:54:39.694Z,0.00
2022-09-20T00:55:39.707Z,0.00
2022-09-20T00:56:39.677Z,0.00
2022-09-20T00:57:39.671Z,0.00
2022-09-20T00:58:39.680Z,0.00
2022-09-20T00:59:39.643Z,0.00
2022-09-20T01:00:39.680Z,0.00
2022-09-20T01:01:39.707Z,0.00
2022-09-20T01:02:39.642Z,0.00
2022-09-20T01:03:39.596Z,0.00
2022-09-20T01:04:39.580Z,0.00
2022-09-20T01:05:39.572Z,0.00
2022-09-20T01:06:39.586Z,0.00
2022-09-20T01:07:39.558Z,0.00
2022-09-20T01:08:39.556Z,0.00
2022-09-20T01:09:39.523Z,0.00
2022-09-20T01:10:39.520Z,0.00
2022-09-20T01:11:39.534Z,0.00
2022-09-20T01:12:39.493Z,0.00
2022-09-20T01:13:39.494Z,0.00
2022-09-20T01:14:39.465Z,0.00
2022-09-20T01:15:39.470Z,0.00
2022-09-20T01:16:39.540Z,0.00
2022-09-20T01:17:39.437Z,0.00
2022-09-20T01:18:39.416Z,0.00
2022-09-20T01:19:39.421Z,0.00
2022-09-20T01:20:39.430Z,0.00
2022-09-20T01:21:39.419Z,0.00
2022-09-20T01:22:39.377Z,0.00
2022-09-20T01:23:39.374Z,0.00
2022-09-20T01:24:39.391Z,0.00
2022-09-20T01:25:39.336Z,0.00
2022-09-20T01:26:39.334Z,0.00
2022-09-20T01:27:39.327Z,0.00
2022-09-20T01:28:39.306Z,0.00
2022-09-20T01:29:39.301Z,0.00
2022-09-20T01:30:39.300Z,0.00
2022-09-20T01:31:39.313Z,0.00
2022-09-20T01:32:39.265Z,0.00
2022-09-20T01:33:39.269Z,0.00
2022-09-20T01:34:39.254Z,0.00
2022-09-20T01:35:39.235Z,0.00
2022-09-20T01:36:39.211Z,0.00
2022-09-20T01:37:39.205Z,0.00
2022-09-20T01:38:39.228Z,0.00
2022-09-20T01:39:39.192Z,0.00
2022-09-20T01:40:39.229Z,0.00
2022-09-20T01:41:39.155Z,0.00
2022-09-20T01:42:39.153Z,0.00
2022-09-20T01:43:39.141Z,0.00
2022-09-20T01:44:39.156Z,0.00
2022-09-20T01:45:39.176Z,0.00
2022-09-20T01:46:39.107Z,0.00
2022-09-20T01:47:39.099Z,0.00
2022-09-20T01:48:39.084Z,0.00
2022-09-20T01:49:39.139Z,0.00
2022-09-20T01:50:39.073Z,0.00
2022-09-20T01:51:39.038Z,0.00
2022-09-20T01:52:39.051Z,0.00
2022-09-20T01:53:39.027Z,0.00
2022-09-20T01:54:39.024Z,0.00
2022-09-20T01:55:39.034Z,0.00
2022-09-20T01:56:39.001Z,0.00
2022-09-20T01:57:38.983Z,0.00
2022-09-20T01:58:39.057Z,0.00
2022-09-20T01:59:38.971Z,0.00
2022-09-20T02:00:38.974Z,0.00
2022-09-20T02:01:38.988Z,0.00
2022-09-20T02:02:38.991Z,0.00
2022-09-20T02:03:38.920Z,0.00
2022-09-20T02:04:38.911Z,0.00
2022-09-20T02:05:38.994Z,0.00
2022-09-20T02:06:38.888Z,0.00
2022-09-20T02:07:38.886Z,0.00
2022-09-20T02:08:38.865Z,0.00
2022-09-20T02:09:38.847Z,0.00
2022-09-20T02:10:38.846Z,0.00
2022-09-20T02:11:38.854Z,0.00
2022-09-20T02:12:38.817Z,0.00
2022-09-20T02:13:38.803Z,0.00
2022-09-20T02:14:38.798Z,0.00
2022-09-20T02:15:38.797Z,0.00
2022-09-20T02:16:38.815Z,0.00
2022-09-20T02:17:38.787Z,0.00
2022-09-20T02:18:38.742Z,0.00
2022-09-20T02:19:38.739Z,0.00
2022-09-20T02:20:38.761Z,0.00
2022-09-20T02:21:38.756Z,0.00
2022-09-20T02:22:38.737Z,0.00
2022-09-20T02:23:38.683Z,0.00
2022-09-20T02:24:38.730Z,0.00
2022-09-20T02:25:38.669Z,0.00
2022-09-20T02:26:38.703Z,0.00
2022-09-20T02:27:38.642Z,0.00
2022-09-20T02:28:38.643Z,0.00
2022-09-20T02:29:38.621Z,0.00
2022-09-20T02:30:38.617Z,0.00
2022-09-20T02:31:38.701Z,0.00
2022-09-20T02:32:38.642Z,0.00
2022-09-20T02:33:38.568Z,0.00
2022-09-20T02:34:38.581Z,0.00
2022-09-20T02:35:38.557Z,0.00
2022-09-20T02:36:38.546Z,0.00
2022-09-20T02:37:38.522Z,0.00
2022-09-20T02:38:38.550Z,0.00
2022-09-20T02:39:38.519Z,0.00
2022-09-20T02:40:38.603Z,0.00
2022-09-20T02:41:38.510Z,0.00
2022-09-20T02:42:38.472Z,0.00
2022-09-20T02:43:38.466Z,0.00
2022-09-20T02:44:38.448Z,0.00
2022-09-20T02:45:38.507Z,0.00
2022-09-20T02:46:38.461Z,0.00
2022-09-20T02:47:38.556Z,0.00
2022-09-20T02:48:38.417Z,0.00
2022-09-20T02:49:38.398Z,0.00
2022-09-20T02:50:38.409Z,0.00
2022-09-20T02:51:38.381Z,0.00
2022-09-20T02:52:38.381Z,0.00
2022-09-20T02:53:38.375Z,0.00
2022-09-20T02:54:38.345Z,0.00
2022-09-20T02:55:38.335Z,0.00
2022-09-20T02:56:38.339Z,0.00
2022-09-20T02:57:38.313Z,0.00
2022-09-20T02:58:38.330Z,0.00
2022-09-20T02:59:38.304Z,0.00
2022-09-20T03:00:38.295Z,0.00
2022-09-20T03:01:38.370Z,0.00
2022-09-20T03:02:38.343Z,0.00
2022-09-20T03:03:38.238Z,0.00
2022-09-20T03:04:38.241Z,0.00
2022-09-20T03:05:38.243Z,0.00
2022-09-20T03:06:38.206Z,0.00
2022-09-20T03:07:38.197Z,0.00
2022-09-20T03:08:38.237Z,0.00
2022-09-20T03:09:38.200Z,0.00
2022-09-20T03:10:38.180Z,0.00
2022-09-20T03:11:38.138Z,0.00
2022-09-20T03:12:38.133Z,0.00
2022-09-20T03:13:38.154Z,0.00
2022-09-20T03:14:38.118Z,0.00
2022-09-20T03:15:38.107Z,0.00
2022-09-20T03:16:38.119Z,0.00
2022-09-20T03:17:38.080Z,0.00
2022-09-20T03:18:38.108Z,0.00
2022-09-20T03:19:38.092Z,0.00
2022-09-20T03:20:38.068Z,0.00
2022-09-20T03:21:38.053Z,0.00
2022-09-20T03:22:38.031Z,0.00
2022-09-20T03:23:38.012Z,0.00
2022-09-20T03:24:37.992Z,0.00
2022-09-20T03:25:38.013Z,0.00
2022-09-20T03:26:38.014Z,0.00
2022-09-20T03:27:37.958Z,0.00
2022-09-20T03:28:37.964Z,0.00
2022-09-20T03:29:37.940Z,0.00
2022-09-20T03:30:37.936Z,0.00
2022-09-20T03:31:38.107Z,0.00
2022-09-20T03:32:37.930Z,0.00
2022-09-20T03:33:37.904Z,0.00
2022-09-20T03:34:37.881Z,0.00
2022-09-20T03:35:37.875Z,0.00
2022-09-20T03:36:37.930Z,0.00
2022-09-20T03:37:37.852Z,0.00
2022-09-20T03:38:37.854Z,0.00
2022-09-20T03:39:37.838Z,0.00
2022-09-20T03:40:38.039Z,0.00
2022-09-20T03:41:37.817Z,0.00
2022-09-20T03:42:37.841Z,0.00
2022-09-20T03:43:37.790Z,0.00
2022-09-20T03:44:37.782Z,0.00
2022-09-20T03:45:37.848Z,0.00
2022-09-20T03:46:37.764Z,0.00
2022-09-20T03:47:37.766Z,0.00
2022-09-20T03:48:37.733Z,0.00
2022-09-20T03:49:37.738Z,0.00
2022-09-20T03:50:37.714Z,0.00
2022-09-20T03:51:37.713Z,0.00
2022-09-20T03:52:37.703Z,0.00
2022-09-20T03:53:37.709Z,0.00
2022-09-20T03:54:37.663Z,0.00
2022-09-20T03:55:37.661Z,4.00
2022-09-20T03:56:37.664Z,4.00
2022-09-20T03:57:37.624Z,0.00
2022-09-20T03:58:37.668Z,4.00
2022-09-20T03:59:37.618Z,4.00
2022-09-20T04:00:37.595Z,0.00
2022-09-20T04:01:37.628Z,4.00
2022-09-20T04:02:37.655Z,4.00
2022-09-20T04:03:37.569Z,4.00
2022-09-20T04:04:37.583Z,8.00
2022-09-20T04:05:37.542Z,8.00
2022-09-20T04:06:37.522Z,4.00
2022-09-20T04:07:37.523Z,4.00
2022-09-20T04:08:40.192Z,8.00
2022-09-20T04:09:37.495Z,12.00
2022-09-20T04:10:37.492Z,12.00
2022-09-20T04:11:37.465Z,12.00
2022-09-20T04:12:37.459Z,12.00
2022-09-20T04:13:37.481Z,16.00
2022-09-20T04:14:37.470Z,16.00
2022-09-20T04:15:37.422Z,16.00
2022-09-20T04:16:37.503Z,20.00
2022-09-20T04:17:37.413Z,24.00
2022-09-20T04:18:37.419Z,24.00
2022-09-20T04:19:37.395Z,28.00
2022-09-20T04:20:37.368Z,28.00
2022-09-20T04:21:37.363Z,32.00
2022-09-20T04:22:37.337Z,36.00
2022-09-20T04:23:37.394Z,36.00
2022-09-20T04:24:37.328Z,40.00
2022-09-20T04:25:40.704Z,48.00
2022-09-20T04:26:37.306Z,48.00
2022-09-20T04:27:37.297Z,56.00
2022-09-20T04:28:37.286Z,56.00
2022-09-20T04:29:37.284Z,60.00
2022-09-20T04:30:37.273Z,68.00
2022-09-20T04:31:37.339Z,68.00
2022-09-20T04:32:37.251Z,72.00
2022-09-20T04:33:37.221Z,76.00
2022-09-20T04:34:37.210Z,84.00
2022-09-20T04:35:37.215Z,92.00
2022-09-20T04:36:37.217Z,100.00
2022-09-20T04:37:37.182Z,104.00
2022-09-20T04:38:37.185Z,112.00
2022-09-20T04:39:37.164Z,116.00
2022-09-20T04:40:37.222Z,120.00
2022-09-20T04:41:37.149Z,132.00
2022-09-20T04:42:37.140Z,140.00
2022-09-20T04:43:37.138Z,148.00
2022-09-20T04:44:37.097Z,160.00
2022-09-20T04:45:37.111Z,172.00
2022-09-20T04:46:37.099Z,184.00
2022-09-20T04:47:37.062Z,200.00
2022-09-20T04:48:37.093Z,220.00
2022-09-20T04:49:37.040Z,240.00
2022-09-20T04:50:37.034Z,256.00
2022-09-20T04:51:37.023Z,272.00
2022-09-20T04:52:37.009Z,300.00
2022-09-20T04:53:36.990Z,320.00
2022-09-20T04:54:37.046Z,336.00
2022-09-20T04:55:36.974Z,352.00
2022-09-20T04:56:36.977Z,368.00
2022-09-20T04:57:36.963Z,380.00
2022-09-20T04:58:36.959Z,400.00
2022-09-20T04:59:36.953Z,424.00
2022-09-20T05:00:36.929Z,440.00
2022-09-20T05:01:36.979Z,468.00
2022-09-20T05:02:36.937Z,488.00
2022-09-20T05:03:36.923Z,508.00
2022-09-20T05:04:36.872Z,520.00
2022-09-20T05:05:36.869Z,536.00
2022-09-20T05:06:36.881Z,540.00
2022-09-20T05:07:36.859Z,532.00
2022-09-20T05:08:36.832Z,528.00
2022-09-20T05:09:36.814Z,524.00
2022-09-20T05:10:36.842Z,512.00
2022-09-20T05:11:36.799Z,508.00
2022-09-20T05:12:36.785Z,504.00
2022-09-20T05:13:36.771Z,500.00
2022-09-20T05:14:36.760Z,492.00
2022-09-20T05:15:36.744Z,496.00
2022-09-20T05:16:39.612Z,504.00
2022-09-20T05:17:36.737Z,520.00
2022-09-20T05:18:36.728Z,536.00
2022-09-20T05:19:36.709Z,564.00
2022-09-20T05:20:36.701Z,592.00
2022-09-20T05:21:36.706Z,620.00
2022-09-20T05:22:36.675Z,652.00
2022-09-20T05:23:36.717Z,684.00
2022-09-20T05:24:36.660Z,720.00
2022-09-20T05:25:36.645Z,756.00
2022-09-20T05:26:36.633Z,804.00
2022-09-20T05:27:36.673Z,876.00
2022-09-20T05:28:36.605Z,936.00
2022-09-20T05:29:36.616Z,1004.00
2022-09-20T05:30:36.577Z,1092.00
2022-09-20T05:31:36.624Z,1204.00
2022-09-20T05:32:36.586Z,1900.00
2022-09-20T05:33:36.542Z,2404.00
2022-09-20T05:34:36.571Z,1952.00
2022-09-20T05:35:37.420Z,1680.00
2022-09-20T05:36:36.516Z,1304.00
2022-09-20T05:37:36.533Z,1332.00
2022-09-20T05:38:36.493Z,1392.00
2022-09-20T05:39:36.477Z,1344.00
2022-09-20T05:40:36.594Z,1352.00
2022-09-20T05:41:36.471Z,1472.00
2022-09-20T05:42:36.436Z,1692.00
2022-09-20T05:43:36.434Z,1488.00
2022-09-20T05:44:36.422Z,1512.00
2022-09-20T05:45:37.469Z,1576.00
2022-09-20T05:46:36.405Z,1736.00
2022-09-20T05:47:36.397Z,1976.00
2022-09-20T05:48:36.397Z,2100.00
2022-09-20T05:49:36.377Z,1772.00
2022-09-20T05:50:36.355Z,1728.00
2022-09-20T05:51:36.371Z,1700.00
2022-09-20T05:52:36.334Z,1704.00
2022-09-20T05:53:36.325Z,1720.00
2022-09-20T05:54:36.321Z,1560.00
2022-09-20T05:55:36.306Z,1492.00
2022-09-20T05:56:36.319Z,1472.00
2022-09-20T05:57:36.281Z,1456.00
2022-09-20T05:58:36.929Z,1424.00
2022-09-20T05:59:36.254Z,1400.00
2022-09-20T06:00:36.248Z,1396.00
2022-09-20T06:01:36.264Z,1392.00
2022-09-20T06:02:36.293Z,1396.00
2022-09-20T06:03:36.214Z,1420.00
2022-09-20T06:04:36.187Z,1456.00
2022-09-20T06:05:36.188Z,1564.00
2022-09-20T06:06:36.230Z,1536.00
2022-09-20T06:07:36.162Z,1608.00
2022-09-20T06:08:36.164Z,1648.00
2022-09-20T06:09:36.143Z,1636.00
2022-09-20T06:10:36.129Z,1624.00
2022-09-20T06:11:36.165Z,1612.00
2022-09-20T06:12:36.116Z,1620.00
2022-09-20T06:13:36.104Z,1640.00
2022-09-20T06:14:36.097Z,1676.00
2022-09-20T06:15:36.066Z,1684.00
2022-09-20T06:16:36.147Z,1664.00
2022-09-20T06:17:36.076Z,1636.00
2022-09-20T06:18:36.030Z,1612.00
2022-09-20T06:19:36.046Z,1600.00
2022-09-20T06:20:36.031Z,1600.00
2022-09-20T06:21:36.011Z,1616.00
2022-09-20T06:22:36.014Z,1648.00
2022-09-20T06:23:35.987Z,1700.00
2022-09-20T06:24:35.981Z,1776.00
2022-09-20T06:25:35.960Z,1848.00
2022-09-20T06:26:35.971Z,1964.00
2022-09-20T06:27:35.926Z,2064.00
2022-09-20T06:28:35.960Z,2144.00
2022-09-20T06:29:35.914Z,2240.00
2022-09-20T06:30:35.988Z,2336.00
2022-09-20T06:31:35.899Z,2356.00
2022-09-20T06:32:35.889Z,2364.00
2022-09-20T06:33:35.870Z,2352.00
2022-09-20T06:34:35.876Z,2328.00
2022-09-20T06:35:35.858Z,2316.00
2022-09-20T06:36:35.836Z,2292.00
2022-09-20T06:37:35.830Z,2296.00
2022-09-20T06:38:35.816Z,2324.00
2022-09-20T06:39:35.840Z,2316.00
2022-09-20T06:40:35.820Z,2312.00
2022-09-20T06:41:35.828Z,2264.00
2022-09-20T06:42:35.820Z,2224.00
2022-09-20T06:43:35.790Z,2228.00
2022-09-20T06:44:35.763Z,2240.00
2022-09-20T06:45:35.797Z,2236.00
2022-09-20T06:46:35.744Z,2208.00
2022-09-20T06:47:38.641Z,2220.00
2022-09-20T06:48:35.702Z,2236.00
2022-09-20T06:49:35.686Z,2232.00
2022-09-20T06:50:36.154Z,2228.00
2022-09-20T06:51:35.682Z,2264.00
2022-09-20T06:52:35.653Z,2284.00
2022-09-20T06:53:35.639Z,2288.00
2022-09-20T06:54:35.644Z,2328.00
2022-09-20T06:55:35.624Z,2360.00
2022-09-20T06:56:36.116Z,2368.00
2022-09-20T06:57:35.606Z,2416.00
2022-09-20T06:58:35.589Z,2500.00
2022-09-20T06:59:35.589Z,2608.00
2022-09-20T07:00:35.598Z,2684.00
2022-09-20T07:01:35.605Z,2724.00
2022-09-20T07:02:35.561Z,2732.00
2022-09-20T07:03:35.545Z,2744.00
2022-09-20T07:04:35.535Z,2792.00
2022-09-20T07:05:35.509Z,2812.00
2022-09-20T07:06:35.535Z,2816.00
2022-09-20T07:07:35.530Z,2840.00
2022-09-20T07:08:35.486Z,2864.00
2022-09-20T07:09:35.455Z,2872.00
2022-09-20T07:10:35.479Z,2888.00
2022-09-20T07:11:35.447Z,2868.00
2022-09-20T07:12:35.493Z,2780.00
2022-09-20T07:13:35.430Z,2728.00
2022-09-20T07:14:35.419Z,2740.00
2022-09-20T07:15:35.409Z,2780.00
2022-09-20T07:16:35.425Z,2816.00
2022-09-20T07:17:35.383Z,2852.00
2022-09-20T07:18:35.378Z,2912.00
2022-09-20T07:19:35.372Z,2964.00
2022-09-20T07:20:35.346Z,3016.00
2022-09-20T07:21:35.319Z,3096.00
2022-09-20T07:22:35.319Z,3140.00
2022-09-20T07:23:35.335Z,3080.00
2022-09-20T07:24:35.404Z,3004.00
2022-09-20T07:25:35.301Z,2988.00
2022-09-20T07:26:35.267Z,3016.00
2022-09-20T07:27:35.284Z,2980.00
2022-09-20T07:28:35.268Z,2976.00
2022-09-20T07:29:35.261Z,3020.00
2022-09-20T07:30:35.242Z,3092.00
2022-09-20T07:31:35.268Z,3156.00
2022-09-20T07:32:35.209Z,3116.00
2022-09-20T07:33:35.219Z,3192.00
2022-09-20T07:34:35.257Z,3256.00
2022-09-20T07:35:35.191Z,3284.00
2022-09-20T07:36:35.170Z,3304.00
2022-09-20T07:37:37.264Z,3308.00
2022-09-20T07:38:35.136Z,3392.00
2022-09-20T07:39:35.144Z,3460.00
2022-09-20T07:40:35.194Z,3520.00
2022-09-20T07:41:35.139Z,3600.00
2022-09-20T07:42:35.109Z,3632.00
2022-09-20T07:43:35.093Z,3612.00
2022-09-20T07:44:35.056Z,3476.00
2022-09-20T07:45:35.168Z,3336.00
2022-09-20T07:46:35.043Z,3220.00
2022-09-20T07:47:35.062Z,3160.00
2022-09-20T07:48:35.047Z,3112.00
2022-09-20T07:49:35.016Z,3072.00
2022-09-20T07:50:35.001Z,3052.00
2022-09-20T07:51:35.062Z,3024.00
2022-09-20T07:52:35.010Z,2996.00
2022-09-20T07:53:34.973Z,3012.00
2022-09-20T07:54:34.965Z,2992.00
2022-09-20T07:55:34.972Z,2980.00
2022-09-20T07:56:34.936Z,3036.00
2022-09-20T07:57:34.991Z,3036.00
2022-09-20T07:58:34.934Z,3016.00
2022-09-20T07:59:34.911Z,2944.00
2022-09-20T08:00:34.886Z,2872.00
2022-09-20T08:01:34.889Z,2792.00
2022-09-20T08:02:34.893Z,2728.00
2022-09-20T08:03:34.880Z,2692.00
2022-09-20T08:04:34.854Z,2688.00
2022-09-20T08:05:34.837Z,2712.00
2022-09-20T08:06:34.818Z,2784.00
2022-09-20T08:07:34.844Z,2824.00
2022-09-20T08:08:35.507Z,3000.00
2022-09-20T08:09:34.792Z,3216.00
2022-09-20T08:10:34.780Z,3464.00
2022-09-20T08:11:34.768Z,3640.00
2022-09-20T08:14:34.814Z,4312.00
2022-09-20T08:15:34.725Z,4552.00
2022-09-20T08:16:34.760Z,4388.00
2022-09-20T08:17:34.701Z,4164.00
2022-09-20T08:18:34.690Z,4216.00
2022-09-20T08:19:34.705Z,4244.00
2022-09-20T08:20:34.671Z,4216.00
2022-09-20T08:21:34.647Z,4264.00
2022-09-20T08:22:34.653Z,4252.00
2022-09-20T08:23:34.639Z,4256.00
2022-09-20T08:24:34.647Z,4264.00
2022-09-20T08:25:34.606Z,4280.00
2022-09-20T08:26:34.591Z,4324.00
2022-09-20T08:27:34.600Z,4392.00
2022-09-20T08:28:34.614Z,4264.00
2022-09-20T08:29:34.562Z,4228.00
2022-09-20T08:30:34.545Z,4276.00
2022-09-20T08:31:34.620Z,4072.00
2022-09-20T08:32:34.523Z,3888.00
2022-09-20T08:33:34.564Z,3776.00
2022-09-20T08:34:34.514Z,3660.00
2022-09-20T08:35:38.184Z,3544.00
2022-09-20T08:36:36.773Z,3408.00
2022-09-20T08:37:34.480Z,3304.00
2022-09-20T08:40:34.489Z,3012.00
2022-09-20T08:41:34.448Z,3068.00
2022-09-20T08:42:39.167Z,3064.00
2022-09-20T08:43:34.406Z,2924.00
2022-09-20T08:44:35.791Z,2860.00
2022-09-20T08:45:35.165Z,2812.00
2022-09-20T08:46:34.407Z,2856.00
2022-09-20T08:47:34.360Z,3040.00
2022-09-20T08:48:34.354Z,3368.00
2022-09-20T08:49:34.338Z,3488.00
2022-09-20T08:50:34.348Z,3596.00
2022-09-20T08:51:34.308Z,3696.00
2022-09-20T08:52:37.445Z,3764.00
2022-09-20T08:53:34.295Z,3824.00
2022-09-20T08:54:34.289Z,3888.00
2022-09-20T08:55:37.584Z,4072.00
2022-09-20T08:56:34.288Z,4136.00
2022-09-20T08:57:34.255Z,4124.00
2022-09-20T08:58:34.237Z,4164.00
2022-09-20T08:59:34.235Z,4264.00
2022-09-20T09:00:34.239Z,4524.00
2022-09-20T09:01:34.303Z,4856.00
2022-09-20T09:02:34.269Z,4232.00
2022-09-20T09:03:34.184Z,4208.00
2022-09-20T09:04:34.171Z,4204.00
2022-09-20T09:05:34.228Z,4232.00
2022-09-20T09:06:34.145Z,4308.00
2022-09-20T09:07:34.147Z,4344.00
2022-09-20T09:08:37.615Z,4372.00
2022-09-20T09:09:37.670Z,4484.00
2022-09-20T09:10:34.110Z,4624.00
2022-09-20T09:11:34.120Z,5396.00
2022-09-20T09:12:34.084Z,5392.00
2022-09-20T09:13:34.074Z,5316.00
2022-09-20T09:14:34.053Z,4860.00
2022-09-20T09:15:34.067Z,5304.00
2022-09-20T09:16:35.827Z,5152.00
2022-09-20T09:17:34.019Z,5404.00
2022-09-20T09:18:34.011Z,5328.00
2022-09-20T09:19:34.328Z,4348.00
2022-09-20T09:20:34.025Z,4612.00
2022-09-20T09:21:34.005Z,5808.00
2022-09-20T09:22:33.967Z,4044.00
2022-09-20T09:23:33.966Z,6308.00
2022-09-20T09:24:33.959Z,6060.00
2022-09-20T09:25:33.933Z,6512.00
2022-09-20T09:26:33.949Z,5512.00
2022-09-20T09:27:33.922Z,4720.00
2022-09-20T09:28:33.919Z,4624.00
2022-09-20T09:29:34.937Z,4536.00
2022-09-20T09:30:33.868Z,4476.00
2022-09-20T09:31:33.963Z,4412.00
2022-09-20T09:32:33.844Z,4388.00
2022-09-20T09:33:33.852Z,4436.00
2022-09-20T09:34:33.892Z,4452.00
2022-09-20T09:35:33.829Z,4388.00
2022-09-20T09:36:33.811Z,4316.00
2022-09-20T09:37:33.824Z,4236.00
2022-09-20T09:38:33.794Z,4152.00
2022-09-20T09:39:33.790Z,4080.00
2022-09-20T09:40:33.796Z,4148.00
2022-09-20T09:41:33.764Z,4192.00
2022-09-20T09:42:33.804Z,4244.00
2022-09-20T09:43:33.731Z,4236.00
2022-09-20T09:44:33.723Z,4216.00
2022-09-20T09:45:33.752Z,4176.00
2022-09-20T09:46:33.715Z,4116.00
2022-09-20T09:47:33.691Z,4016.00
2022-09-20T09:48:34.919Z,3896.00
2022-09-20T09:49:33.664Z,3800.00
2022-09-20T09:50:33.657Z,3720.00
2022-09-20T09:51:33.657Z,3632.00
2022-09-20T09:52:33.634Z,3548.00
2022-09-20T09:53:33.649Z,3480.00
2022-09-20T09:54:33.607Z,3392.00
2022-09-20T09:55:33.598Z,3236.00
2022-09-20T09:56:33.598Z,3108.00
2022-09-20T09:57:33.587Z,3036.00
2022-09-20T09:58:33.594Z,2916.00
2022-09-20T09:59:33.568Z,2812.00
2022-09-20T10:00:33.557Z,2824.00
2022-09-20T10:01:33.819Z,3172.00
2022-09-20T10:02:33.568Z,3756.00
2022-09-20T10:03:33.535Z,3244.00
2022-09-20T10:04:33.555Z,3820.00
2022-09-20T10:05:33.497Z,4420.00
2022-09-20T10:06:33.484Z,4576.00
2022-09-20T10:07:33.748Z,4536.00
2022-09-20T10:08:33.453Z,4516.00
2022-09-20T10:09:33.452Z,4524.00
2022-09-20T10:10:33.475Z,4536.00
2022-09-20T10:11:33.423Z,4572.00
2022-09-20T10:12:33.424Z,4656.00
2022-09-20T10:13:37.054Z,4756.00
2022-09-20T10:14:33.402Z,4908.00
2022-09-20T10:15:33.385Z,5208.00
2022-09-20T10:16:33.472Z,4236.00
2022-09-20T10:17:33.361Z,5700.00
2022-09-20T10:18:33.345Z,6032.00
2022-09-20T10:19:33.356Z,4684.00
2022-09-20T10:20:33.327Z,4768.00
2022-09-20T10:21:33.302Z,5124.00
2022-09-20T10:22:33.301Z,4964.00
2022-09-20T10:23:58.965Z,5068.00
2022-09-20T10:24:33.288Z,4828.00
2022-09-20T10:25:33.279Z,4616.00
2022-09-20T10:26:33.256Z,4476.00
2022-09-20T10:27:33.264Z,4348.00
2022-09-20T10:28:33.229Z,4236.00
2022-09-20T10:29:33.229Z,4084.00
2022-09-20T10:30:33.253Z,3940.00
2022-09-20T10:31:33.314Z,3780.00
2022-09-20T10:32:33.178Z,3640.00
2022-09-20T10:33:33.174Z,3560.00
2022-09-20T10:34:33.158Z,3476.00
2022-09-20T10:35:33.155Z,3344.00
2022-09-20T10:36:33.159Z,3216.00
2022-09-20T10:37:33.138Z,3120.00
2022-09-20T10:38:33.107Z,3128.00
2022-09-20T10:39:33.119Z,3220.00
2022-09-20T10:40:33.196Z,3480.00
2022-09-20T10:41:33.129Z,3768.00
2022-09-20T10:42:33.141Z,3492.00
2022-09-20T10:43:33.080Z,3368.00
2022-09-20T10:44:33.061Z,3508.00
2022-09-20T10:46:33.663Z,3632.00
2022-09-20T10:47:33.107Z,4204.00
2022-09-20T10:48:33.030Z,4580.00
2022-09-20T10:49:33.014Z,5196.00
2022-09-20T10:50:32.993Z,5764.00
2022-09-20T10:51:32.973Z,6296.00
2022-09-20T10:52:33.006Z,6324.00
2022-09-20T10:53:33.018Z,7068.00
2022-09-20T10:54:32.935Z,7128.00
2022-09-20T10:55:32.935Z,7216.00
2022-09-20T10:56:32.923Z,7216.00
2022-09-20T10:57:32.910Z,7284.00
2022-09-20T10:58:32.895Z,7264.00
2022-09-20T10:59:32.898Z,7216.00
2022-09-20T11:00:32.869Z,6960.00
2022-09-20T11:01:32.928Z,6068.00
2022-09-20T11:02:32.923Z,6112.00
2022-09-20T11:03:32.875Z,5768.00
2022-09-20T11:04:32.819Z,6632.00
2022-09-20T11:05:32.821Z,5452.00
2022-09-20T11:06:32.808Z,4420.00
2022-09-20T11:07:32.849Z,3620.00
2022-09-20T11:08:32.799Z,3316.00
2022-09-20T11:09:32.785Z,3072.00
2022-09-20T11:10:32.761Z,2872.00
2022-09-20T11:11:32.753Z,2744.00
2022-09-20T11:12:32.755Z,2744.00
2022-09-20T11:13:32.757Z,2872.00
2022-09-20T11:14:32.716Z,3056.00
2022-09-20T11:15:32.843Z,3196.00
2022-09-20T11:16:32.792Z,3380.00
2022-09-20T11:17:32.681Z,3556.00
2022-09-20T11:18:32.700Z,3664.00
2022-09-20T11:19:32.708Z,3960.00
2022-09-20T11:20:32.679Z,4312.00
2022-09-20T11:21:32.659Z,4668.00
2022-09-20T11:22:32.623Z,4880.00
2022-09-20T11:23:32.627Z,6120.00
2022-09-20T11:24:32.600Z,4796.00
2022-09-20T11:25:32.628Z,4452.00
2022-09-20T11:26:32.602Z,4204.00
2022-09-20T11:27:32.711Z,3916.00
2022-09-20T11:28:32.551Z,3644.00
2022-09-20T11:29:32.590Z,3504.00
2022-09-20T11:30:32.538Z,3336.00
2022-09-20T11:31:32.556Z,3320.00
2022-09-20T11:32:32.522Z,3228.00
2022-09-20T11:33:32.522Z,3760.00
2022-09-20T11:34:32.503Z,2908.00
2022-09-20T11:35:32.529Z,2772.00
2022-09-20T11:36:32.463Z,2692.00
2022-09-20T11:37:32.451Z,2656.00
2022-09-20T11:38:32.435Z,2616.00
2022-09-20T11:39:32.419Z,2648.00
2022-09-20T11:40:32.508Z,2644.00
2022-09-20T11:41:32.412Z,2764.00
2022-09-20T11:42:32.396Z,2756.00
2022-09-20T11:43:32.389Z,2716.00
2022-09-20T11:44:32.394Z,2744.00
2022-09-20T11:45:32.506Z,2748.00
2022-09-20T11:46:32.348Z,2676.00
2022-09-20T11:47:53.476Z,2636.00
2022-09-20T11:48:32.338Z,2700.00
2022-09-20T11:49:32.313Z,2896.00
2022-09-20T11:50:32.320Z,3092.00
2022-09-20T11:51:32.318Z,3216.00
2022-09-20T11:52:32.293Z,3252.00
2022-09-20T11:53:36.615Z,3108.00
2022-09-20T11:54:32.271Z,2952.00
2022-09-20T11:55:32.265Z,2892.00
2022-09-20T11:56:32.262Z,2756.00
2022-09-20T11:57:32.262Z,2628.00
2022-09-20T11:58:32.249Z,2532.00
2022-09-20T11:59:32.227Z,2496.00
2022-09-20T12:00:32.200Z,2584.00
2022-09-20T12:01:32.196Z,2660.00
2022-09-20T12:02:32.334Z,2572.00
2022-09-20T12:03:32.237Z,2772.00
2022-09-20T12:04:33.568Z,3756.00
2022-09-20T12:05:32.130Z,4288.00
2022-09-20T12:06:32.144Z,4272.00
2022-09-20T12:07:32.121Z,4320.00
2022-09-20T12:08:32.137Z,3152.00
2022-09-20T12:09:32.099Z,3972.00
2022-09-20T12:10:32.089Z,3732.00
2022-09-20T12:11:32.076Z,3580.00
2022-09-20T12:12:32.086Z,2932.00
2022-09-20T12:13:32.050Z,3672.00
2022-09-20T12:14:32.070Z,3380.00
2022-09-20T12:15:32.032Z,3516.00
2022-09-20T12:16:32.055Z,3496.00
2022-09-20T12:17:32.007Z,2736.00
2022-09-20T12:18:32.007Z,2436.00
2022-09-20T12:19:32.007Z,2828.00
2022-09-20T12:20:31.987Z,3724.00
2022-09-20T12:21:31.964Z,4056.00
2022-09-20T12:22:31.982Z,3044.00
2022-09-20T12:23:31.944Z,3652.00
2022-09-20T12:24:31.961Z,3212.00
2022-09-20T12:25:31.906Z,2952.00
2022-09-20T12:26:31.903Z,2604.00
2022-09-20T12:27:31.898Z,2360.00
2022-09-20T12:28:31.951Z,2276.00
2022-09-20T12:29:31.920Z,2368.00
2022-09-20T12:30:31.857Z,2604.00
2022-09-20T12:31:32.031Z,2776.00
2022-09-20T12:32:31.844Z,2888.00
2022-09-20T12:33:31.825Z,2996.00
2022-09-20T12:34:31.815Z,3120.00
2022-09-20T12:35:31.831Z,3236.00
2022-09-20T12:36:31.839Z,3312.00